sensor_id;sensor_type;location;lat;lon;timestamp;P1;durP1;ratioP1;P2;durP2;ratioP2
76900;SDS011;65859;43.020;25.096;2024-02-16T00:01:05;22.88;;;13.48;;
76900;SDS011;65859;43.020;25.096;2024-02-16T00:03:31;17.45;;;12.00;;
76900;SDS011;65859;43.020;25.096;2024-02-16T00:05:57;18.52;;;10.98;;
76900;SDS011;65859;43.020;25.096;2024-02-16T00:08:24;20.65;;;12.30;;
76900;SDS011;65859;43.020;25.096;2024-02-16T00:10:50;17.13;;;11.88;;
76900;SDS011;65859;43.020;25.096;2024-02-16T00:13:16;18.35;;;12.27;;
76900;SDS011;65859;43.020;25.096;2024-02-16T00:19:24;22.20;;;13.88;;
76900;SDS011;65859;43.020;25.096;2024-02-16T00:21:52;22.35;;;14.70;;
76900;SDS011;65859;43.020;25.096;2024-02-16T00:24:20;21.45;;;13.50;;
76900;SDS011;65859;43.020;25.096;2024-02-16T00:26:47;25.23;;;14.35;;
76900;SDS011;65859;43.020;25.096;2024-02-16T00:29:13;20.15;;;13.32;;
76900;SDS011;65859;43.020;25.096;2024-02-16T00:31:39;25.88;;;14.90;;
76900;SDS011;65859;43.020;25.096;2024-02-16T00:34:05;25.42;;;15.07;;
76900;SDS011;65859;43.020;25.096;2024-02-16T00:36:32;23.77;;;14.20;;
76900;SDS011;65859;43.020;25.096;2024-02-16T00:38:59;22.67;;;14.45;;
76900;SDS011;65859;43.020;25.096;2024-02-16T00:41:25;22.42;;;14.07;;
76900;SDS011;65859;43.020;25.096;2024-02-16T00:43:51;25.92;;;16.30;;
76900;SDS011;65859;43.020;25.096;2024-02-16T00:46:18;22.05;;;14.52;;
76900;SDS011;65859;43.020;25.096;2024-02-16T00:48:44;22.95;;;13.27;;
76900;SDS011;65859;43.020;25.096;2024-02-16T00:51:11;21.15;;;14.65;;
76900;SDS011;65859;43.020;25.096;2024-02-16T00:53:38;24.50;;;14.88;;
76900;SDS011;65859;43.020;25.096;2024-02-16T00:56:06;23.15;;;15.38;;
76900;SDS011;65859;43.020;25.096;2024-02-16T00:58:33;20.25;;;13.27;;
76900;SDS011;65859;43.020;25.096;2024-02-16T01:01:00;23.42;;;14.40;;
76900;SDS011;65859;43.020;25.096;2024-02-16T01:03:26;25.13;;;15.50;;
76900;SDS011;65859;43.020;25.096;2024-02-16T01:05:53;20.23;;;13.68;;
76900;SDS011;65859;43.020;25.096;2024-02-16T01:08:19;24.25;;;14.65;;
76900;SDS011;65859;43.020;25.096;2024-02-16T01:10:45;21.08;;;14.60;;
76900;SDS011;65859;43.020;25.096;2024-02-16T01:13:12;19.77;;;13.88;;
76900;SDS011;65859;43.020;25.096;2024-02-16T01:15:38;25.42;;;15.77;;
76900;SDS011;65859;43.020;25.096;2024-02-16T01:18:06;68.85;;;31.45;;
76900;SDS011;65859;43.020;25.096;2024-02-16T01:20:32;121.13;;;55.47;;
76900;SDS011;65859;43.020;25.096;2024-02-16T01:22:59;71.38;;;33.70;;
76900;SDS011;65859;43.020;25.096;2024-02-16T01:25:25;31.73;;;18.25;;
76900;SDS011;65859;43.020;25.096;2024-02-16T01:27:52;24.08;;;14.48;;
76900;SDS011;65859;43.020;25.096;2024-02-16T01:30:19;34.10;;;18.38;;
76900;SDS011;65859;43.020;25.096;2024-02-16T01:32:46;28.52;;;16.80;;
76900;SDS011;65859;43.020;25.096;2024-02-16T01:35:12;29.23;;;17.88;;
76900;SDS011;65859;43.020;25.096;2024-02-16T01:37:42;28.85;;;17.42;;
76900;SDS011;65859;43.020;25.096;2024-02-16T01:40:09;25.08;;;16.48;;
76900;SDS011;65859;43.020;25.096;2024-02-16T01:42:46;23.70;;;14.60;;
76900;SDS011;65859;43.020;25.096;2024-02-16T01:45:13;20.25;;;13.75;;
76900;SDS011;65859;43.020;25.096;2024-02-16T01:47:41;20.52;;;13.02;;
76900;SDS011;65859;43.020;25.096;2024-02-16T01:50:09;18.50;;;12.82;;
76900;SDS011;65859;43.020;25.096;2024-02-16T01:52:36;19.00;;;13.07;;
76900;SDS011;65859;43.020;25.096;2024-02-16T01:55:03;17.63;;;12.52;;
76900;SDS011;65859;43.020;25.096;2024-02-16T01:57:34;20.25;;;13.23;;
76900;SDS011;65859;43.020;25.096;2024-02-16T02:00:02;18.75;;;12.90;;
76900;SDS011;65859;43.020;25.096;2024-02-16T02:02:28;21.17;;;13.00;;
76900;SDS011;65859;43.020;25.096;2024-02-16T02:04:54;18.08;;;12.35;;
76900;SDS011;65859;43.020;25.096;2024-02-16T02:07:24;20.08;;;12.48;;
76900;SDS011;65859;43.020;25.096;2024-02-16T02:09:52;21.70;;;13.52;;
76900;SDS011;65859;43.020;25.096;2024-02-16T02:12:18;20.05;;;13.27;;
76900;SDS011;65859;43.020;25.096;2024-02-16T02:14:45;22.30;;;13.65;;
76900;SDS011;65859;43.020;25.096;2024-02-16T02:17:12;22.50;;;13.63;;
76900;SDS011;65859;43.020;25.096;2024-02-16T02:19:38;20.20;;;12.20;;
76900;SDS011;65859;43.020;25.096;2024-02-16T02:22:13;19.25;;;12.95;;
76900;SDS011;65859;43.020;25.096;2024-02-16T02:24:43;20.52;;;13.63;;
76900;SDS011;65859;43.020;25.096;2024-02-16T02:27:11;18.38;;;13.32;;
76900;SDS011;65859;43.020;25.096;2024-02-16T02:29:38;19.13;;;13.15;;
76900;SDS011;65859;43.020;25.096;2024-02-16T02:32:06;19.38;;;13.63;;
76900;SDS011;65859;43.020;25.096;2024-02-16T02:34:32;21.40;;;13.45;;
76900;SDS011;65859;43.020;25.096;2024-02-16T02:36:59;22.67;;;14.48;;
76900;SDS011;65859;43.020;25.096;2024-02-16T02:39:25;21.95;;;13.93;;
76900;SDS011;65859;43.020;25.096;2024-02-16T02:41:52;19.10;;;12.73;;
76900;SDS011;65859;43.020;25.096;2024-02-16T02:44:18;21.83;;;14.38;;
76900;SDS011;65859;43.020;25.096;2024-02-16T02:46:45;21.27;;;13.77;;
76900;SDS011;65859;43.020;25.096;2024-02-16T02:49:11;29.70;;;16.60;;
76900;SDS011;65859;43.020;25.096;2024-02-16T02:51:37;27.13;;;17.48;;
76900;SDS011;65859;43.020;25.096;2024-02-16T02:54:04;27.50;;;17.33;;
76900;SDS011;65859;43.020;25.096;2024-02-16T02:56:30;25.73;;;16.55;;
76900;SDS011;65859;43.020;25.096;2024-02-16T02:58:57;27.98;;;16.90;;
76900;SDS011;65859;43.020;25.096;2024-02-16T03:01:23;27.17;;;16.75;;
76900;SDS011;65859;43.020;25.096;2024-02-16T03:03:50;28.42;;;17.33;;
76900;SDS011;65859;43.020;25.096;2024-02-16T03:06:17;26.30;;;17.15;;
76900;SDS011;65859;43.020;25.096;2024-02-16T03:08:44;28.05;;;16.65;;
76900;SDS011;65859;43.020;25.096;2024-02-16T03:11:10;32.72;;;16.67;;
76900;SDS011;65859;43.020;25.096;2024-02-16T03:13:37;30.15;;;17.88;;
76900;SDS011;65859;43.020;25.096;2024-02-16T03:16:03;29.40;;;17.63;;
76900;SDS011;65859;43.020;25.096;2024-02-16T03:18:30;29.65;;;18.80;;
76900;SDS011;65859;43.020;25.096;2024-02-16T03:21:02;29.45;;;18.23;;
76900;SDS011;65859;43.020;25.096;2024-02-16T03:23:28;30.08;;;18.92;;
76900;SDS011;65859;43.020;25.096;2024-02-16T03:25:55;32.65;;;18.50;;
76900;SDS011;65859;43.020;25.096;2024-02-16T03:28:21;32.03;;;18.42;;
76900;SDS011;65859;43.020;25.096;2024-02-16T03:30:48;29.50;;;19.20;;
76900;SDS011;65859;43.020;25.096;2024-02-16T03:33:14;30.40;;;20.00;;
76900;SDS011;65859;43.020;25.096;2024-02-16T03:35:41;33.05;;;21.45;;
76900;SDS011;65859;43.020;25.096;2024-02-16T03:38:07;34.85;;;22.20;;
76900;SDS011;65859;43.020;25.096;2024-02-16T03:40:34;34.10;;;21.20;;
76900;SDS011;65859;43.020;25.096;2024-02-16T03:43:00;35.67;;;21.33;;
76900;SDS011;65859;43.020;25.096;2024-02-16T03:45:26;32.40;;;20.33;;
76900;SDS011;65859;43.020;25.096;2024-02-16T03:47:53;25.05;;;15.65;;
76900;SDS011;65859;43.020;25.096;2024-02-16T03:50:19;29.60;;;17.30;;
76900;SDS011;65859;43.020;25.096;2024-02-16T03:52:46;27.98;;;16.33;;
76900;SDS011;65859;43.020;25.096;2024-02-16T03:55:12;29.20;;;16.17;;
76900;SDS011;65859;43.020;25.096;2024-02-16T03:57:39;24.23;;;15.43;;
76900;SDS011;65859;43.020;25.096;2024-02-16T04:00:07;24.73;;;14.60;;
76900;SDS011;65859;43.020;25.096;2024-02-16T04:02:33;26.63;;;15.55;;
76900;SDS011;65859;43.020;25.096;2024-02-16T04:05:01;34.08;;;17.52;;
76900;SDS011;65859;43.020;25.096;2024-02-16T04:07:29;26.55;;;15.90;;
76900;SDS011;65859;43.020;25.096;2024-02-16T04:09:56;24.80;;;15.50;;
76900;SDS011;65859;43.020;25.096;2024-02-16T04:12:22;24.35;;;14.85;;
76900;SDS011;65859;43.020;25.096;2024-02-16T04:14:48;24.40;;;14.27;;
76900;SDS011;65859;43.020;25.096;2024-02-16T04:17:14;24.42;;;14.90;;
76900;SDS011;65859;43.020;25.096;2024-02-16T04:19:40;28.63;;;17.20;;
76900;SDS011;65859;43.020;25.096;2024-02-16T04:22:07;30.40;;;17.42;;
76900;SDS011;65859;43.020;25.096;2024-02-16T04:24:33;28.10;;;16.95;;
76900;SDS011;65859;43.020;25.096;2024-02-16T04:26:59;29.23;;;18.23;;
76900;SDS011;65859;43.020;25.096;2024-02-16T04:29:25;24.55;;;15.88;;
76900;SDS011;65859;43.020;25.096;2024-02-16T04:31:52;23.85;;;15.13;;
76900;SDS011;65859;43.020;25.096;2024-02-16T04:34:18;26.17;;;16.73;;
76900;SDS011;65859;43.020;25.096;2024-02-16T04:36:44;26.40;;;15.35;;
76900;SDS011;65859;43.020;25.096;2024-02-16T04:39:11;23.33;;;14.25;;
76900;SDS011;65859;43.020;25.096;2024-02-16T04:41:40;26.20;;;15.10;;
76900;SDS011;65859;43.020;25.096;2024-02-16T04:44:06;30.90;;;17.23;;
76900;SDS011;65859;43.020;25.096;2024-02-16T04:46:32;36.00;;;19.58;;
76900;SDS011;65859;43.020;25.096;2024-02-16T04:48:58;66.43;;;34.45;;
76900;SDS011;65859;43.020;25.096;2024-02-16T04:51:24;48.55;;;26.55;;
76900;SDS011;65859;43.020;25.096;2024-02-16T04:53:51;48.03;;;26.73;;
76900;SDS011;65859;43.020;25.096;2024-02-16T04:56:17;91.57;;;42.10;;
76900;SDS011;65859;43.020;25.096;2024-02-16T04:58:43;86.15;;;38.25;;
76900;SDS011;65859;43.020;25.096;2024-02-16T05:01:10;67.72;;;35.30;;
76900;SDS011;65859;43.020;25.096;2024-02-16T05:03:37;48.47;;;27.67;;
76900;SDS011;65859;43.020;25.096;2024-02-16T05:06:06;79.45;;;39.72;;
76900;SDS011;65859;43.020;25.096;2024-02-16T05:08:32;61.60;;;33.40;;
76900;SDS011;65859;43.020;25.096;2024-02-16T05:11:00;51.78;;;26.17;;
76900;SDS011;65859;43.020;25.096;2024-02-16T05:13:27;46.70;;;25.35;;
76900;SDS011;65859;43.020;25.096;2024-02-16T05:15:53;45.05;;;27.00;;
76900;SDS011;65859;43.020;25.096;2024-02-16T05:18:21;40.17;;;23.33;;
76900;SDS011;65859;43.020;25.096;2024-02-16T05:20:48;39.60;;;24.85;;
76900;SDS011;65859;43.020;25.096;2024-02-16T05:23:14;44.50;;;28.52;;
76900;SDS011;65859;43.020;25.096;2024-02-16T05:25:40;25.58;;;17.42;;
76900;SDS011;65859;43.020;25.096;2024-02-16T05:28:06;23.52;;;15.18;;
76900;SDS011;65859;43.020;25.096;2024-02-16T05:30:33;22.58;;;14.68;;
76900;SDS011;65859;43.020;25.096;2024-02-16T05:32:59;32.40;;;18.52;;
76900;SDS011;65859;43.020;25.096;2024-02-16T05:35:25;31.33;;;19.17;;
76900;SDS011;65859;43.020;25.096;2024-02-16T05:37:54;24.00;;;17.48;;
76900;SDS011;65859;43.020;25.096;2024-02-16T05:40:20;25.33;;;16.23;;
76900;SDS011;65859;43.020;25.096;2024-02-16T05:42:51;27.42;;;17.25;;
76900;SDS011;65859;43.020;25.096;2024-02-16T05:45:18;33.67;;;20.70;;
76900;SDS011;65859;43.020;25.096;2024-02-16T05:47:46;35.17;;;21.63;;
76900;SDS011;65859;43.020;25.096;2024-02-16T05:50:14;32.75;;;18.63;;
76900;SDS011;65859;43.020;25.096;2024-02-16T05:52:40;32.63;;;21.88;;
76900;SDS011;65859;43.020;25.096;2024-02-16T05:55:08;36.15;;;23.92;;
76900;SDS011;65859;43.020;25.096;2024-02-16T05:57:35;32.50;;;19.77;;
76900;SDS011;65859;43.020;25.096;2024-02-16T06:00:06;28.33;;;17.85;;
76900;SDS011;65859;43.020;25.096;2024-02-16T06:02:34;24.20;;;16.80;;
76900;SDS011;65859;43.020;25.096;2024-02-16T06:05:01;29.70;;;18.63;;
76900;SDS011;65859;43.020;25.096;2024-02-16T06:07:28;30.10;;;16.13;;
76900;SDS011;65859;43.020;25.096;2024-02-16T06:09:57;32.53;;;18.45;;
76900;SDS011;65859;43.020;25.096;2024-02-16T06:12:24;30.10;;;16.33;;
76900;SDS011;65859;43.020;25.096;2024-02-16T06:14:51;31.17;;;17.80;;
76900;SDS011;65859;43.020;25.096;2024-02-16T06:17:19;31.77;;;17.70;;
76900;SDS011;65859;43.020;25.096;2024-02-16T06:19:45;40.00;;;19.27;;
76900;SDS011;65859;43.020;25.096;2024-02-16T06:22:12;29.58;;;18.27;;
76900;SDS011;65859;43.020;25.096;2024-02-16T06:24:38;32.03;;;19.33;;
76900;SDS011;65859;43.020;25.096;2024-02-16T06:27:05;37.50;;;18.55;;
76900;SDS011;65859;43.020;25.096;2024-02-16T06:29:33;35.00;;;18.42;;
76900;SDS011;65859;43.020;25.096;2024-02-16T06:32:00;32.17;;;19.17;;
76900;SDS011;65859;43.020;25.096;2024-02-16T06:34:27;33.42;;;18.25;;
76900;SDS011;65859;43.020;25.096;2024-02-16T06:36:54;28.23;;;17.70;;
76900;SDS011;65859;43.020;25.096;2024-02-16T06:39:21;26.52;;;18.38;;
76900;SDS011;65859;43.020;25.096;2024-02-16T06:41:47;31.92;;;18.02;;
76900;SDS011;65859;43.020;25.096;2024-02-16T06:44:17;25.90;;;16.60;;
76900;SDS011;65859;43.020;25.096;2024-02-16T06:46:44;26.88;;;17.83;;
76900;SDS011;65859;43.020;25.096;2024-02-16T06:49:10;33.00;;;18.90;;
76900;SDS011;65859;43.020;25.096;2024-02-16T06:51:37;31.85;;;19.75;;
76900;SDS011;65859;43.020;25.096;2024-02-16T06:54:03;29.48;;;19.02;;
76900;SDS011;65859;43.020;25.096;2024-02-16T06:56:31;28.25;;;17.98;;
76900;SDS011;65859;43.020;25.096;2024-02-16T06:58:57;29.30;;;19.48;;
76900;SDS011;65859;43.020;25.096;2024-02-16T07:01:23;30.05;;;19.27;;
76900;SDS011;65859;43.020;25.096;2024-02-16T07:03:52;27.08;;;17.85;;
76900;SDS011;65859;43.020;25.096;2024-02-16T07:06:19;31.60;;;18.92;;
76900;SDS011;65859;43.020;25.096;2024-02-16T07:08:45;36.97;;;20.30;;
76900;SDS011;65859;43.020;25.096;2024-02-16T07:11:11;33.50;;;18.85;;
76900;SDS011;65859;43.020;25.096;2024-02-16T07:13:39;33.88;;;19.60;;
76900;SDS011;65859;43.020;25.096;2024-02-16T07:16:05;28.48;;;18.65;;
76900;SDS011;65859;43.020;25.096;2024-02-16T07:18:33;34.13;;;21.38;;
76900;SDS011;65859;43.020;25.096;2024-02-16T07:20:59;34.33;;;20.02;;
76900;SDS011;65859;43.020;25.096;2024-02-16T07:23:26;28.80;;;17.00;;
76900;SDS011;65859;43.020;25.096;2024-02-16T07:25:53;29.83;;;17.98;;
76900;SDS011;65859;43.020;25.096;2024-02-16T07:28:23;34.15;;;18.77;;
76900;SDS011;65859;43.020;25.096;2024-02-16T07:30:50;40.83;;;23.17;;
76900;SDS011;65859;43.020;25.096;2024-02-16T07:33:17;44.33;;;24.60;;
76900;SDS011;65859;43.020;25.096;2024-02-16T07:35:43;40.13;;;23.10;;
76900;SDS011;65859;43.020;25.096;2024-02-16T07:38:09;41.40;;;23.27;;
76900;SDS011;65859;43.020;25.096;2024-02-16T07:40:36;42.80;;;25.70;;
76900;SDS011;65859;43.020;25.096;2024-02-16T07:43:02;52.20;;;26.13;;
76900;SDS011;65859;43.020;25.096;2024-02-16T07:45:29;46.13;;;24.70;;
76900;SDS011;65859;43.020;25.096;2024-02-16T07:47:56;43.38;;;24.13;;
76900;SDS011;65859;43.020;25.096;2024-02-16T07:50:24;42.80;;;24.58;;
76900;SDS011;65859;43.020;25.096;2024-02-16T07:52:50;44.67;;;26.35;;
76900;SDS011;65859;43.020;25.096;2024-02-16T07:55:17;44.55;;;28.38;;
76900;SDS011;65859;43.020;25.096;2024-02-16T07:57:43;61.95;;;38.13;;
76900;SDS011;65859;43.020;25.096;2024-02-16T08:00:10;58.13;;;34.22;;
76900;SDS011;65859;43.020;25.096;2024-02-16T08:02:37;59.35;;;37.53;;
76900;SDS011;65859;43.020;25.096;2024-02-16T08:05:05;57.10;;;36.92;;
76900;SDS011;65859;43.020;25.096;2024-02-16T08:07:33;68.72;;;35.47;;
76900;SDS011;65859;43.020;25.096;2024-02-16T08:09:59;58.33;;;35.17;;
76900;SDS011;65859;43.020;25.096;2024-02-16T08:12:26;53.53;;;33.05;;
76900;SDS011;65859;43.020;25.096;2024-02-16T08:14:53;65.35;;;35.00;;
76900;SDS011;65859;43.020;25.096;2024-02-16T08:17:19;58.90;;;33.15;;
76900;SDS011;65859;43.020;25.096;2024-02-16T08:19:51;51.35;;;31.10;;
76900;SDS011;65859;43.020;25.096;2024-02-16T08:22:22;51.92;;;30.67;;
76900;SDS011;65859;43.020;25.096;2024-02-16T08:24:49;54.05;;;31.27;;
76900;SDS011;65859;43.020;25.096;2024-02-16T08:27:15;48.13;;;30.08;;
76900;SDS011;65859;43.020;25.096;2024-02-16T08:29:42;54.17;;;30.23;;
76900;SDS011;65859;43.020;25.096;2024-02-16T08:32:08;52.20;;;29.38;;
76900;SDS011;65859;43.020;25.096;2024-02-16T08:34:35;49.05;;;28.92;;
76900;SDS011;65859;43.020;25.096;2024-02-16T08:37:02;49.50;;;28.40;;
76900;SDS011;65859;43.020;25.096;2024-02-16T08:39:30;43.58;;;25.90;;
76900;SDS011;65859;43.020;25.096;2024-02-16T08:41:56;46.05;;;24.63;;
76900;SDS011;65859;43.020;25.096;2024-02-16T08:44:23;42.45;;;22.08;;
76900;SDS011;65859;43.020;25.096;2024-02-16T08:46:50;36.70;;;21.13;;
76900;SDS011;65859;43.020;25.096;2024-02-16T08:49:16;34.50;;;19.70;;
76900;SDS011;65859;43.020;25.096;2024-02-16T08:51:43;32.67;;;19.00;;
76900;SDS011;65859;43.020;25.096;2024-02-16T08:54:10;30.92;;;18.15;;
76900;SDS011;65859;43.020;25.096;2024-02-16T08:56:37;27.58;;;18.52;;
76900;SDS011;65859;43.020;25.096;2024-02-16T08:59:06;30.65;;;19.15;;
76900;SDS011;65859;43.020;25.096;2024-02-16T09:01:38;26.67;;;15.68;;
76900;SDS011;65859;43.020;25.096;2024-02-16T09:04:05;22.45;;;15.13;;
76900;SDS011;65859;43.020;25.096;2024-02-16T09:06:31;28.77;;;16.75;;
76900;SDS011;65859;43.020;25.096;2024-02-16T09:08:59;27.60;;;17.48;;
76900;SDS011;65859;43.020;25.096;2024-02-16T09:11:26;26.20;;;17.67;;
76900;SDS011;65859;43.020;25.096;2024-02-16T09:13:53;23.27;;;14.25;;
76900;SDS011;65859;43.020;25.096;2024-02-16T09:16:19;19.15;;;13.32;;
76900;SDS011;65859;43.020;25.096;2024-02-16T09:18:45;24.50;;;14.55;;
76900;SDS011;65859;43.020;25.096;2024-02-16T09:21:13;25.45;;;15.07;;
76900;SDS011;65859;43.020;25.096;2024-02-16T09:23:40;24.95;;;14.70;;
76900;SDS011;65859;43.020;25.096;2024-02-16T09:26:08;22.45;;;13.20;;
76900;SDS011;65859;43.020;25.096;2024-02-16T09:28:38;21.05;;;13.55;;
76900;SDS011;65859;43.020;25.096;2024-02-16T09:31:06;25.10;;;15.20;;
76900;SDS011;65859;43.020;25.096;2024-02-16T09:33:33;26.38;;;15.23;;
76900;SDS011;65859;43.020;25.096;2024-02-16T09:36:00;28.08;;;15.55;;
76900;SDS011;65859;43.020;25.096;2024-02-16T09:38:26;24.33;;;15.48;;
76900;SDS011;65859;43.020;25.096;2024-02-16T09:40:52;24.65;;;16.30;;
76900;SDS011;65859;43.020;25.096;2024-02-16T09:43:25;28.15;;;15.63;;
76900;SDS011;65859;43.020;25.096;2024-02-16T09:45:57;33.53;;;20.08;;
76900;SDS011;65859;43.020;25.096;2024-02-16T09:48:25;40.58;;;23.45;;
76900;SDS011;65859;43.020;25.096;2024-02-16T09:50:56;29.02;;;16.70;;
76900;SDS011;65859;43.020;25.096;2024-02-16T09:53:26;23.42;;;15.00;;
76900;SDS011;65859;43.020;25.096;2024-02-16T09:55:53;25.10;;;15.38;;
76900;SDS011;65859;43.020;25.096;2024-02-16T09:58:20;24.75;;;13.95;;
76900;SDS011;65859;43.020;25.096;2024-02-16T10:00:54;20.10;;;13.55;;
76900;SDS011;65859;43.020;25.096;2024-02-16T10:03:25;20.73;;;13.15;;
76900;SDS011;65859;43.020;25.096;2024-02-16T10:06:04;22.13;;;13.73;;
76900;SDS011;65859;43.020;25.096;2024-02-16T10:11:32;23.77;;;13.73;;
76900;SDS011;65859;43.020;25.096;2024-02-16T10:14:00;27.13;;;13.35;;
76900;SDS011;65859;43.020;25.096;2024-02-16T10:16:28;23.77;;;13.68;;
76900;SDS011;65859;43.020;25.096;2024-02-16T10:18:56;25.73;;;15.48;;
76900;SDS011;65859;43.020;25.096;2024-02-16T10:21:32;27.38;;;14.50;;
76900;SDS011;65859;43.020;25.096;2024-02-16T10:24:04;28.77;;;13.77;;
76900;SDS011;65859;43.020;25.096;2024-02-16T10:26:33;22.40;;;12.23;;
76900;SDS011;65859;43.020;25.096;2024-02-16T10:29:07;22.40;;;13.27;;
76900;SDS011;65859;43.020;25.096;2024-02-16T10:31:34;19.25;;;12.60;;
76900;SDS011;65859;43.020;25.096;2024-02-16T10:34:02;18.08;;;11.48;;
76900;SDS011;65859;43.020;25.096;2024-02-16T10:36:35;16.25;;;11.55;;
76900;SDS011;65859;43.020;25.096;2024-02-16T10:39:02;16.38;;;11.70;;
76900;SDS011;65859;43.020;25.096;2024-02-16T10:41:32;20.60;;;12.23;;
76900;SDS011;65859;43.020;25.096;2024-02-16T10:44:00;16.67;;;10.48;;
76900;SDS011;65859;43.020;25.096;2024-02-16T10:46:28;14.98;;;10.55;;
76900;SDS011;65859;43.020;25.096;2024-02-16T10:48:55;20.08;;;11.23;;
76900;SDS011;65859;43.020;25.096;2024-02-16T10:54:03;14.50;;;10.35;;
76900;SDS011;65859;43.020;25.096;2024-02-16T10:56:34;17.50;;;11.30;;
76900;SDS011;65859;43.020;25.096;2024-02-16T10:59:02;17.35;;;11.32;;
76900;SDS011;65859;43.020;25.096;2024-02-16T11:01:40;17.25;;;10.48;;
76900;SDS011;65859;43.020;25.096;2024-02-16T11:04:13;18.90;;;10.98;;
76900;SDS011;65859;43.020;25.096;2024-02-16T11:06:48;15.57;;;9.82;;
76900;SDS011;65859;43.020;25.096;2024-02-16T11:09:23;25.30;;;15.85;;
76900;SDS011;65859;43.020;25.096;2024-02-16T11:12:01;21.52;;;13.13;;
76900;SDS011;65859;43.020;25.096;2024-02-16T11:14:35;30.33;;;17.67;;
76900;SDS011;65859;43.020;25.096;2024-02-16T11:19:35;23.08;;;14.45;;
76900;SDS011;65859;43.020;25.096;2024-02-16T11:22:04;24.88;;;16.00;;
76900;SDS011;65859;43.020;25.096;2024-02-16T11:24:35;20.00;;;13.57;;
76900;SDS011;65859;43.020;25.096;2024-02-16T11:27:07;23.35;;;15.02;;
76900;SDS011;65859;43.020;25.096;2024-02-16T11:29:35;21.77;;;14.50;;
76900;SDS011;65859;43.020;25.096;2024-02-16T11:32:05;22.15;;;13.25;;
76900;SDS011;65859;43.020;25.096;2024-02-16T11:34:33;25.38;;;14.48;;
76900;SDS011;65859;43.020;25.096;2024-02-16T11:37:00;23.75;;;13.27;;
76900;SDS011;65859;43.020;25.096;2024-02-16T11:39:28;17.65;;;11.90;;
76900;SDS011;65859;43.020;25.096;2024-02-16T11:42:03;28.15;;;17.90;;
76900;SDS011;65859;43.020;25.096;2024-02-16T11:44:36;24.38;;;16.13;;
76900;SDS011;65859;43.020;25.096;2024-02-16T11:47:05;20.77;;;15.10;;
76900;SDS011;65859;43.020;25.096;2024-02-16T11:49:37;23.27;;;14.88;;
76900;SDS011;65859;43.020;25.096;2024-02-16T11:52:04;23.60;;;16.05;;
76900;SDS011;65859;43.020;25.096;2024-02-16T11:54:32;25.42;;;16.50;;
76900;SDS011;65859;43.020;25.096;2024-02-16T11:56:58;18.42;;;11.18;;
76900;SDS011;65859;43.020;25.096;2024-02-16T11:59:24;21.70;;;12.82;;
76900;SDS011;65859;43.020;25.096;2024-02-16T12:01:54;16.98;;;11.55;;
76900;SDS011;65859;43.020;25.096;2024-02-16T12:04:26;24.08;;;14.18;;
76900;SDS011;65859;43.020;25.096;2024-02-16T12:07:00;18.58;;;10.57;;
76900;SDS011;65859;43.020;25.096;2024-02-16T12:09:27;13.98;;;9.88;;
76900;SDS011;65859;43.020;25.096;2024-02-16T12:11:57;14.73;;;10.95;;
76900;SDS011;65859;43.020;25.096;2024-02-16T12:14:23;14.75;;;10.75;;
76900;SDS011;65859;43.020;25.096;2024-02-16T12:16:50;17.17;;;11.60;;
76900;SDS011;65859;43.020;25.096;2024-02-16T12:19:20;17.92;;;13.77;;
76900;SDS011;65859;43.020;25.096;2024-02-16T12:21:56;15.70;;;10.63;;
76900;SDS011;65859;43.020;25.096;2024-02-16T12:24:23;12.88;;;9.90;;
76900;SDS011;65859;43.020;25.096;2024-02-16T12:26:50;14.13;;;9.18;;
76900;SDS011;65859;43.020;25.096;2024-02-16T12:29:16;13.63;;;8.48;;
76900;SDS011;65859;43.020;25.096;2024-02-16T12:31:46;15.95;;;11.15;;
76900;SDS011;65859;43.020;25.096;2024-02-16T12:34:14;14.25;;;11.07;;
76900;SDS011;65859;43.020;25.096;2024-02-16T12:36:42;18.40;;;12.15;;
76900;SDS011;65859;43.020;25.096;2024-02-16T12:39:08;15.30;;;9.32;;
76900;SDS011;65859;43.020;25.096;2024-02-16T12:41:37;14.20;;;8.52;;
76900;SDS011;65859;43.020;25.096;2024-02-16T12:44:04;11.93;;;8.85;;
76900;SDS011;65859;43.020;25.096;2024-02-16T12:46:31;12.13;;;8.77;;
76900;SDS011;65859;43.020;25.096;2024-02-16T12:48:57;15.13;;;9.82;;
76900;SDS011;65859;43.020;25.096;2024-02-16T12:51:23;22.27;;;14.23;;
76900;SDS011;65859;43.020;25.096;2024-02-16T12:53:50;18.65;;;13.15;;
76900;SDS011;65859;43.020;25.096;2024-02-16T12:56:16;15.13;;;9.68;;
76900;SDS011;65859;43.020;25.096;2024-02-16T12:58:43;16.50;;;10.07;;
76900;SDS011;65859;43.020;25.096;2024-02-16T13:01:09;14.55;;;9.38;;
76900;SDS011;65859;43.020;25.096;2024-02-16T13:03:37;12.80;;;8.60;;
76900;SDS011;65859;43.020;25.096;2024-02-16T13:06:04;12.60;;;8.40;;
76900;SDS011;65859;43.020;25.096;2024-02-16T13:08:32;13.55;;;8.73;;
76900;SDS011;65859;43.020;25.096;2024-02-16T13:10:58;12.23;;;8.07;;
76900;SDS011;65859;43.020;25.096;2024-02-16T13:13:25;17.00;;;10.32;;
76900;SDS011;65859;43.020;25.096;2024-02-16T13:15:51;19.15;;;11.93;;
76900;SDS011;65859;43.020;25.096;2024-02-16T13:18:17;16.48;;;11.25;;
76900;SDS011;65859;43.020;25.096;2024-02-16T13:20:43;12.35;;;8.52;;
76900;SDS011;65859;43.020;25.096;2024-02-16T13:23:10;12.07;;;8.40;;
76900;SDS011;65859;43.020;25.096;2024-02-16T13:25:36;10.85;;;7.80;;
76900;SDS011;65859;43.020;25.096;2024-02-16T13:28:02;16.00;;;8.88;;
76900;SDS011;65859;43.020;25.096;2024-02-16T13:30:30;13.90;;;8.30;;
76900;SDS011;65859;43.020;25.096;2024-02-16T13:32:57;10.75;;;7.50;;
76900;SDS011;65859;43.020;25.096;2024-02-16T13:35:23;12.32;;;8.02;;
76900;SDS011;65859;43.020;25.096;2024-02-16T13:37:49;11.32;;;7.28;;
76900;SDS011;65859;43.020;25.096;2024-02-16T13:40:17;12.93;;;7.72;;
76900;SDS011;65859;43.020;25.096;2024-02-16T13:42:43;10.90;;;7.50;;
76900;SDS011;65859;43.020;25.096;2024-02-16T13:45:10;12.07;;;7.50;;
76900;SDS011;65859;43.020;25.096;2024-02-16T13:47:37;12.25;;;7.20;;
76900;SDS011;65859;43.020;25.096;2024-02-16T13:50:06;9.38;;;6.97;;
76900;SDS011;65859;43.020;25.096;2024-02-16T13:52:32;17.10;;;10.07;;
76900;SDS011;65859;43.020;25.096;2024-02-16T13:55:00;9.88;;;6.53;;
76900;SDS011;65859;43.020;25.096;2024-02-16T13:57:27;12.18;;;7.53;;
76900;SDS011;65859;43.020;25.096;2024-02-16T13:59:54;10.13;;;6.07;;
76900;SDS011;65859;43.020;25.096;2024-02-16T14:02:20;9.48;;;5.78;;
76900;SDS011;65859;43.020;25.096;2024-02-16T14:04:46;12.45;;;5.90;;
76900;SDS011;65859;43.020;25.096;2024-02-16T14:07:14;9.18;;;6.60;;
76900;SDS011;65859;43.020;25.096;2024-02-16T14:09:40;8.63;;;6.32;;
76900;SDS011;65859;43.020;25.096;2024-02-16T14:12:08;12.55;;;6.78;;
76900;SDS011;65859;43.020;25.096;2024-02-16T14:14:34;12.50;;;7.07;;
76900;SDS011;65859;43.020;25.096;2024-02-16T14:17:01;8.95;;;4.78;;
76900;SDS011;65859;43.020;25.096;2024-02-16T14:19:27;11.02;;;5.50;;
76900;SDS011;65859;43.020;25.096;2024-02-16T14:21:55;10.27;;;6.55;;
76900;SDS011;65859;43.020;25.096;2024-02-16T14:24:21;8.38;;;5.78;;